TAF Text Data
IDs:
Format:
Raw Decoded Include METAR

Data at: 1829 UTC 23 Jan 2019

KDHT 231753Z AUTO 22012KT 10SM CLR 06/M11 A3010 RMK AO2 SLP201 T00561111 10056 21089 58006

KDHT 231720Z 2318/2418 25012KT P6SM SKC
  FM240600 35005KT P6SM FEW250
  FM241200 02014KT P6SM SCT110